Terminal Aerodrome Forecast
Issued by NWS Caribou, ME

Home | Current Version | Previous Version | Text Only | Print | Product List | Glossary On
Versions: 1 2 3 4 5 6 7 8 9 10 11 12 13 14 15 16 17 18 19 20
000
FTUS41 KCAR 261135
TAFBGR
TAF
KBGR 261135Z 2612/2712 01005KT P6SM BKN200
     FM262300 01008KT P6SM SCT060 BKN080
     FM270500 02010KT P6SM OVC050
     FM270800 02013G23KT 2SM -SN OVC015
     FM271000 02015G25KT 1/2SM SN FZFG OVC005=

USA.gov is the U.S. government's official web portal to all federal, state and local government web resources and services.